sensor_id;sensor_type;location;lat;lon;timestamp;P1;durP1;ratioP1;P2;durP2;ratioP2
6947;SDS011;3513;47.664;9.162;2024-03-07T00:00:11;21.80;;;15.57;;
6947;SDS011;3513;47.664;9.162;2024-03-07T00:02:42;20.13;;;13.83;;
6947;SDS011;3513;47.664;9.162;2024-03-07T00:05:09;25.67;;;16.50;;
6947;SDS011;3513;47.664;9.162;2024-03-07T00:07:36;25.57;;;16.30;;
6947;SDS011;3513;47.664;9.162;2024-03-07T00:10:02;26.90;;;15.77;;
6947;SDS011;3513;47.664;9.162;2024-03-07T00:12:32;27.87;;;15.40;;
6947;SDS011;3513;47.664;9.162;2024-03-07T00:14:58;25.23;;;15.23;;
6947;SDS011;3513;47.664;9.162;2024-03-07T00:17:23;27.30;;;15.67;;
6947;SDS011;3513;47.664;9.162;2024-03-07T00:19:49;29.57;;;16.70;;
6947;SDS011;3513;47.664;9.162;2024-03-07T00:22:15;35.73;;;15.40;;
6947;SDS011;3513;47.664;9.162;2024-03-07T00:24:40;24.00;;;14.70;;
6947;SDS011;3513;47.664;9.162;2024-03-07T00:27:07;20.87;;;13.37;;
6947;SDS011;3513;47.664;9.162;2024-03-07T00:29:33;27.13;;;16.50;;
6947;SDS011;3513;47.664;9.162;2024-03-07T00:32:02;24.40;;;15.30;;
6947;SDS011;3513;47.664;9.162;2024-03-07T00:34:28;22.40;;;14.43;;
6947;SDS011;3513;47.664;9.162;2024-03-07T00:36:54;25.07;;;15.50;;
6947;SDS011;3513;47.664;9.162;2024-03-07T00:39:21;25.83;;;16.53;;
6947;SDS011;3513;47.664;9.162;2024-03-07T00:41:47;22.27;;;14.87;;
6947;SDS011;3513;47.664;9.162;2024-03-07T00:44:12;21.60;;;14.17;;
6947;SDS011;3513;47.664;9.162;2024-03-07T00:46:38;23.83;;;15.47;;
6947;SDS011;3513;47.664;9.162;2024-03-07T00:49:03;24.33;;;15.47;;
6947;SDS011;3513;47.664;9.162;2024-03-07T00:51:30;23.27;;;14.90;;
6947;SDS011;3513;47.664;9.162;2024-03-07T00:53:56;24.50;;;16.07;;
6947;SDS011;3513;47.664;9.162;2024-03-07T00:56:23;23.47;;;15.17;;
6947;SDS011;3513;47.664;9.162;2024-03-07T00:58:48;24.60;;;15.80;;
6947;SDS011;3513;47.664;9.162;2024-03-07T01:01:14;22.30;;;14.43;;
6947;SDS011;3513;47.664;9.162;2024-03-07T01:03:40;24.43;;;15.57;;
6947;SDS011;3513;47.664;9.162;2024-03-07T01:06:06;20.70;;;12.90;;
6947;SDS011;3513;47.664;9.162;2024-03-07T01:08:34;21.90;;;14.00;;
6947;SDS011;3513;47.664;9.162;2024-03-07T01:11:01;25.33;;;15.63;;
6947;SDS011;3513;47.664;9.162;2024-03-07T01:13:34;20.80;;;14.40;;
6947;SDS011;3513;47.664;9.162;2024-03-07T01:16:03;23.47;;;14.73;;
6947;SDS011;3513;47.664;9.162;2024-03-07T01:18:29;22.63;;;14.63;;
6947;SDS011;3513;47.664;9.162;2024-03-07T01:20:58;27.03;;;16.30;;
6947;SDS011;3513;47.664;9.162;2024-03-07T01:23:24;27.10;;;17.60;;
6947;SDS011;3513;47.664;9.162;2024-03-07T01:25:49;24.20;;;16.23;;
6947;SDS011;3513;47.664;9.162;2024-03-07T01:28:15;30.37;;;16.20;;
6947;SDS011;3513;47.664;9.162;2024-03-07T01:30:42;27.17;;;16.83;;
6947;SDS011;3513;47.664;9.162;2024-03-07T01:33:07;32.80;;;18.43;;
6947;SDS011;3513;47.664;9.162;2024-03-07T01:35:33;28.50;;;17.67;;
6947;SDS011;3513;47.664;9.162;2024-03-07T01:37:58;28.70;;;18.07;;
6947;SDS011;3513;47.664;9.162;2024-03-07T01:40:24;28.43;;;18.07;;
6947;SDS011;3513;47.664;9.162;2024-03-07T01:42:49;24.90;;;15.10;;
6947;SDS011;3513;47.664;9.162;2024-03-07T01:45:15;25.30;;;16.40;;
6947;SDS011;3513;47.664;9.162;2024-03-07T01:47:43;24.33;;;15.60;;
6947;SDS011;3513;47.664;9.162;2024-03-07T01:50:09;25.80;;;16.17;;
6947;SDS011;3513;47.664;9.162;2024-03-07T01:52:35;31.93;;;17.53;;
6947;SDS011;3513;47.664;9.162;2024-03-07T01:55:03;27.17;;;15.97;;
6947;SDS011;3513;47.664;9.162;2024-03-07T01:57:29;25.60;;;16.47;;
6947;SDS011;3513;47.664;9.162;2024-03-07T01:59:55;24.00;;;14.63;;
6947;SDS011;3513;47.664;9.162;2024-03-07T02:02:21;26.70;;;15.60;;
6947;SDS011;3513;47.664;9.162;2024-03-07T02:04:47;23.87;;;15.33;;
6947;SDS011;3513;47.664;9.162;2024-03-07T02:07:13;26.03;;;15.90;;
6947;SDS011;3513;47.664;9.162;2024-03-07T02:09:38;25.70;;;15.30;;
6947;SDS011;3513;47.664;9.162;2024-03-07T02:12:04;27.90;;;15.77;;
6947;SDS011;3513;47.664;9.162;2024-03-07T02:14:30;21.97;;;13.97;;
6947;SDS011;3513;47.664;9.162;2024-03-07T02:16:56;21.93;;;14.70;;
6947;SDS011;3513;47.664;9.162;2024-03-07T02:19:22;20.10;;;14.27;;
6947;SDS011;3513;47.664;9.162;2024-03-07T02:21:48;24.47;;;15.97;;
6947;SDS011;3513;47.664;9.162;2024-03-07T02:24:14;21.20;;;15.23;;
6947;SDS011;3513;47.664;9.162;2024-03-07T02:26:40;22.90;;;13.83;;
6947;SDS011;3513;47.664;9.162;2024-03-07T02:29:06;20.40;;;13.70;;
6947;SDS011;3513;47.664;9.162;2024-03-07T02:31:32;22.13;;;14.63;;
6947;SDS011;3513;47.664;9.162;2024-03-07T02:34:02;21.30;;;15.37;;
6947;SDS011;3513;47.664;9.162;2024-03-07T02:36:28;23.60;;;15.27;;
6947;SDS011;3513;47.664;9.162;2024-03-07T02:38:54;18.70;;;12.87;;
6947;SDS011;3513;47.664;9.162;2024-03-07T02:41:19;22.00;;;13.77;;
6947;SDS011;3513;47.664;9.162;2024-03-07T02:43:45;20.50;;;13.80;;
6947;SDS011;3513;47.664;9.162;2024-03-07T02:46:11;20.63;;;14.43;;
6947;SDS011;3513;47.664;9.162;2024-03-07T02:48:37;18.77;;;12.43;;
6947;SDS011;3513;47.664;9.162;2024-03-07T02:51:03;20.00;;;12.80;;
6947;SDS011;3513;47.664;9.162;2024-03-07T02:53:31;22.23;;;13.17;;
6947;SDS011;3513;47.664;9.162;2024-03-07T02:55:57;18.43;;;12.50;;
6947;SDS011;3513;47.664;9.162;2024-03-07T02:58:23;19.63;;;13.87;;
6947;SDS011;3513;47.664;9.162;2024-03-07T03:00:49;21.07;;;12.80;;
6947;SDS011;3513;47.664;9.162;2024-03-07T03:03:23;22.10;;;14.00;;
6947;SDS011;3513;47.664;9.162;2024-03-07T03:05:48;22.00;;;12.90;;
6947;SDS011;3513;47.664;9.162;2024-03-07T03:08:14;19.87;;;12.90;;
6947;SDS011;3513;47.664;9.162;2024-03-07T03:10:40;19.47;;;12.50;;
6947;SDS011;3513;47.664;9.162;2024-03-07T03:13:06;21.10;;;13.67;;
6947;SDS011;3513;47.664;9.162;2024-03-07T03:15:31;19.17;;;13.03;;
6947;SDS011;3513;47.664;9.162;2024-03-07T03:17:57;15.53;;;11.23;;
6947;SDS011;3513;47.664;9.162;2024-03-07T03:20:26;20.33;;;12.10;;
6947;SDS011;3513;47.664;9.162;2024-03-07T03:22:58;19.43;;;12.83;;
6947;SDS011;3513;47.664;9.162;2024-03-07T03:25:24;17.67;;;13.00;;
6947;SDS011;3513;47.664;9.162;2024-03-07T03:27:51;15.43;;;10.40;;
6947;SDS011;3513;47.664;9.162;2024-03-07T03:30:17;14.80;;;10.30;;
6947;SDS011;3513;47.664;9.162;2024-03-07T03:32:46;18.30;;;12.63;;
6947;SDS011;3513;47.664;9.162;2024-03-07T03:35:15;18.90;;;12.27;;
6947;SDS011;3513;47.664;9.162;2024-03-07T03:37:41;16.30;;;11.80;;
6947;SDS011;3513;47.664;9.162;2024-03-07T03:40:08;20.40;;;13.30;;
6947;SDS011;3513;47.664;9.162;2024-03-07T03:42:35;15.43;;;11.80;;
6947;SDS011;3513;47.664;9.162;2024-03-07T03:45:04;16.27;;;12.53;;
6947;SDS011;3513;47.664;9.162;2024-03-07T03:47:37;15.80;;;11.50;;
6947;SDS011;3513;47.664;9.162;2024-03-07T03:50:04;17.23;;;12.53;;
6947;SDS011;3513;47.664;9.162;2024-03-07T03:52:30;19.47;;;11.83;;
6947;SDS011;3513;47.664;9.162;2024-03-07T03:54:57;16.50;;;11.23;;
6947;SDS011;3513;47.664;9.162;2024-03-07T03:57:23;17.83;;;12.70;;
6947;SDS011;3513;47.664;9.162;2024-03-07T03:59:49;13.27;;;9.13;;
6947;SDS011;3513;47.664;9.162;2024-03-07T04:02:15;17.27;;;12.17;;
6947;SDS011;3513;47.664;9.162;2024-03-07T04:04:42;17.33;;;11.77;;
6947;SDS011;3513;47.664;9.162;2024-03-07T04:07:07;18.93;;;10.83;;
6947;SDS011;3513;47.664;9.162;2024-03-07T04:09:33;18.87;;;11.90;;
6947;SDS011;3513;47.664;9.162;2024-03-07T04:11:58;16.23;;;11.70;;
6947;SDS011;3513;47.664;9.162;2024-03-07T04:14:24;17.67;;;12.63;;
6947;SDS011;3513;47.664;9.162;2024-03-07T04:16:50;18.77;;;12.70;;
6947;SDS011;3513;47.664;9.162;2024-03-07T04:19:17;18.20;;;12.07;;
6947;SDS011;3513;47.664;9.162;2024-03-07T04:21:45;20.23;;;13.40;;
6947;SDS011;3513;47.664;9.162;2024-03-07T04:24:11;19.43;;;13.07;;
6947;SDS011;3513;47.664;9.162;2024-03-07T04:26:37;16.67;;;12.00;;
6947;SDS011;3513;47.664;9.162;2024-03-07T04:29:03;20.00;;;12.50;;
6947;SDS011;3513;47.664;9.162;2024-03-07T04:31:28;19.93;;;13.20;;
6947;SDS011;3513;47.664;9.162;2024-03-07T04:33:54;23.57;;;14.60;;
6947;SDS011;3513;47.664;9.162;2024-03-07T04:36:19;21.67;;;13.93;;
6947;SDS011;3513;47.664;9.162;2024-03-07T04:38:45;29.80;;;15.93;;
6947;SDS011;3513;47.664;9.162;2024-03-07T04:41:11;23.80;;;15.00;;
6947;SDS011;3513;47.664;9.162;2024-03-07T04:43:37;21.73;;;14.40;;
6947;SDS011;3513;47.664;9.162;2024-03-07T04:46:02;24.30;;;15.40;;
6947;SDS011;3513;47.664;9.162;2024-03-07T04:48:31;21.43;;;13.67;;
6947;SDS011;3513;47.664;9.162;2024-03-07T04:50:57;23.87;;;15.33;;
6947;SDS011;3513;47.664;9.162;2024-03-07T04:53:23;23.20;;;14.57;;
6947;SDS011;3513;47.664;9.162;2024-03-07T04:55:48;25.00;;;16.43;;
6947;SDS011;3513;47.664;9.162;2024-03-07T04:58:14;25.43;;;15.80;;
6947;SDS011;3513;47.664;9.162;2024-03-07T05:00:39;23.93;;;15.93;;
6947;SDS011;3513;47.664;9.162;2024-03-07T05:03:05;22.37;;;15.33;;
6947;SDS011;3513;47.664;9.162;2024-03-07T05:05:31;23.93;;;15.57;;
6947;SDS011;3513;47.664;9.162;2024-03-07T05:07:56;22.47;;;15.50;;
6947;SDS011;3513;47.664;9.162;2024-03-07T05:10:22;23.87;;;15.30;;
6947;SDS011;3513;47.664;9.162;2024-03-07T05:12:48;25.00;;;15.37;;
6947;SDS011;3513;47.664;9.162;2024-03-07T05:15:13;24.87;;;16.30;;
6947;SDS011;3513;47.664;9.162;2024-03-07T05:17:39;23.80;;;16.07;;
6947;SDS011;3513;47.664;9.162;2024-03-07T05:20:07;25.23;;;16.40;;
6947;SDS011;3513;47.664;9.162;2024-03-07T05:22:38;30.23;;;16.37;;
6947;SDS011;3513;47.664;9.162;2024-03-07T05:25:12;26.10;;;16.27;;
6947;SDS011;3513;47.664;9.162;2024-03-07T05:27:38;25.13;;;16.50;;
6947;SDS011;3513;47.664;9.162;2024-03-07T05:30:04;26.10;;;16.33;;
6947;SDS011;3513;47.664;9.162;2024-03-07T05:32:31;23.97;;;15.40;;
6947;SDS011;3513;47.664;9.162;2024-03-07T05:34:59;21.80;;;14.80;;
6947;SDS011;3513;47.664;9.162;2024-03-07T05:37:24;20.97;;;13.37;;
6947;SDS011;3513;47.664;9.162;2024-03-07T05:39:50;24.10;;;15.20;;
6947;SDS011;3513;47.664;9.162;2024-03-07T05:42:17;28.20;;;16.57;;
6947;SDS011;3513;47.664;9.162;2024-03-07T05:44:43;24.27;;;15.13;;
6947;SDS011;3513;47.664;9.162;2024-03-07T05:47:09;27.03;;;16.20;;
6947;SDS011;3513;47.664;9.162;2024-03-07T05:49:35;29.30;;;16.90;;
6947;SDS011;3513;47.664;9.162;2024-03-07T05:52:04;37.37;;;19.17;;
6947;SDS011;3513;47.664;9.162;2024-03-07T05:54:33;27.53;;;15.50;;
6947;SDS011;3513;47.664;9.162;2024-03-07T05:56:59;35.40;;;18.00;;
6947;SDS011;3513;47.664;9.162;2024-03-07T05:59:25;29.60;;;16.70;;
6947;SDS011;3513;47.664;9.162;2024-03-07T06:01:53;38.33;;;19.40;;
6947;SDS011;3513;47.664;9.162;2024-03-07T06:04:20;35.63;;;20.00;;
6947;SDS011;3513;47.664;9.162;2024-03-07T06:06:46;30.67;;;18.43;;
6947;SDS011;3513;47.664;9.162;2024-03-07T06:09:12;27.97;;;16.67;;
6947;SDS011;3513;47.664;9.162;2024-03-07T06:11:39;28.40;;;16.20;;
6947;SDS011;3513;47.664;9.162;2024-03-07T06:14:07;32.03;;;16.03;;
6947;SDS011;3513;47.664;9.162;2024-03-07T06:16:35;34.20;;;18.53;;
6947;SDS011;3513;47.664;9.162;2024-03-07T06:19:01;36.70;;;19.67;;
6947;SDS011;3513;47.664;9.162;2024-03-07T06:21:28;34.30;;;17.27;;
6947;SDS011;3513;47.664;9.162;2024-03-07T06:23:57;34.63;;;18.60;;
6947;SDS011;3513;47.664;9.162;2024-03-07T06:26:30;37.93;;;19.30;;
6947;SDS011;3513;47.664;9.162;2024-03-07T06:29:13;38.73;;;20.10;;
6947;SDS011;3513;47.664;9.162;2024-03-07T06:31:41;37.70;;;20.60;;
6947;SDS011;3513;47.664;9.162;2024-03-07T06:34:07;42.60;;;21.70;;
6947;SDS011;3513;47.664;9.162;2024-03-07T06:36:33;41.03;;;23.00;;
6947;SDS011;3513;47.664;9.162;2024-03-07T06:38:59;47.13;;;22.47;;
6947;SDS011;3513;47.664;9.162;2024-03-07T06:41:25;44.20;;;22.77;;
6947;SDS011;3513;47.664;9.162;2024-03-07T06:43:50;45.80;;;21.90;;
6947;SDS011;3513;47.664;9.162;2024-03-07T06:46:18;43.13;;;20.60;;
6947;SDS011;3513;47.664;9.162;2024-03-07T06:48:45;45.30;;;20.97;;
6947;SDS011;3513;47.664;9.162;2024-03-07T06:51:10;43.23;;;20.80;;
6947;SDS011;3513;47.664;9.162;2024-03-07T06:53:36;44.67;;;21.87;;
6947;SDS011;3513;47.664;9.162;2024-03-07T06:56:02;42.77;;;20.40;;
6947;SDS011;3513;47.664;9.162;2024-03-07T06:58:28;41.43;;;18.70;;
6947;SDS011;3513;47.664;9.162;2024-03-07T07:00:54;44.67;;;20.53;;
6947;SDS011;3513;47.664;9.162;2024-03-07T07:03:20;40.57;;;18.47;;
6947;SDS011;3513;47.664;9.162;2024-03-07T07:05:47;45.37;;;21.03;;
6947;SDS011;3513;47.664;9.162;2024-03-07T07:08:13;46.57;;;19.37;;
6947;SDS011;3513;47.664;9.162;2024-03-07T07:10:39;43.20;;;20.00;;
6947;SDS011;3513;47.664;9.162;2024-03-07T07:13:10;40.50;;;19.30;;
6947;SDS011;3513;47.664;9.162;2024-03-07T07:15:38;40.50;;;19.70;;
6947;SDS011;3513;47.664;9.162;2024-03-07T07:18:04;72.83;;;29.30;;
6947;SDS011;3513;47.664;9.162;2024-03-07T07:20:31;52.70;;;22.30;;
6947;SDS011;3513;47.664;9.162;2024-03-07T07:22:59;35.77;;;18.83;;
6947;SDS011;3513;47.664;9.162;2024-03-07T07:25:27;54.27;;;24.90;;
6947;SDS011;3513;47.664;9.162;2024-03-07T07:27:53;133.67;;;49.00;;
6947;SDS011;3513;47.664;9.162;2024-03-07T07:30:19;68.93;;;27.20;;
6947;SDS011;3513;47.664;9.162;2024-03-07T07:32:49;49.60;;;22.30;;
6947;SDS011;3513;47.664;9.162;2024-03-07T07:35:16;44.67;;;20.50;;
6947;SDS011;3513;47.664;9.162;2024-03-07T07:37:43;64.00;;;27.50;;
6947;SDS011;3513;47.664;9.162;2024-03-07T07:40:11;60.53;;;25.60;;
6947;SDS011;3513;47.664;9.162;2024-03-07T07:42:39;44.23;;;21.00;;
6947;SDS011;3513;47.664;9.162;2024-03-07T07:45:07;58.00;;;25.47;;
6947;SDS011;3513;47.664;9.162;2024-03-07T07:50:12;49.33;;;23.80;;
6947;SDS011;3513;47.664;9.162;2024-03-07T07:52:42;61.57;;;25.80;;
6947;SDS011;3513;47.664;9.162;2024-03-07T07:55:10;64.53;;;27.47;;
6947;SDS011;3513;47.664;9.162;2024-03-07T07:57:45;63.50;;;27.80;;
6947;SDS011;3513;47.664;9.162;2024-03-07T08:00:17;56.03;;;25.87;;
6947;SDS011;3513;47.664;9.162;2024-03-07T08:02:57;64.67;;;30.57;;
6947;SDS011;3513;47.664;9.162;2024-03-07T08:05:27;56.37;;;26.20;;
6947;SDS011;3513;47.664;9.162;2024-03-07T08:07:55;49.83;;;23.93;;
6947;SDS011;3513;47.664;9.162;2024-03-07T08:10:25;57.53;;;24.60;;
6947;SDS011;3513;47.664;9.162;2024-03-07T08:12:56;63.33;;;30.10;;
6947;SDS011;3513;47.664;9.162;2024-03-07T08:15:22;58.77;;;25.80;;
6947;SDS011;3513;47.664;9.162;2024-03-07T08:17:48;55.80;;;25.80;;
6947;SDS011;3513;47.664;9.162;2024-03-07T08:20:15;57.47;;;28.20;;
6947;SDS011;3513;47.664;9.162;2024-03-07T08:22:43;57.57;;;25.87;;
6947;SDS011;3513;47.664;9.162;2024-03-07T08:25:09;50.40;;;25.50;;
6947;SDS011;3513;47.664;9.162;2024-03-07T08:27:39;52.73;;;26.33;;
6947;SDS011;3513;47.664;9.162;2024-03-07T08:30:06;51.80;;;25.50;;
6947;SDS011;3513;47.664;9.162;2024-03-07T08:32:38;49.83;;;23.53;;
6947;SDS011;3513;47.664;9.162;2024-03-07T08:35:10;50.50;;;25.50;;
6947;SDS011;3513;47.664;9.162;2024-03-07T08:37:39;45.20;;;23.23;;
6947;SDS011;3513;47.664;9.162;2024-03-07T08:40:07;50.37;;;23.93;;
6947;SDS011;3513;47.664;9.162;2024-03-07T08:42:35;48.90;;;22.70;;
6947;SDS011;3513;47.664;9.162;2024-03-07T08:45:04;59.70;;;28.40;;
6947;SDS011;3513;47.664;9.162;2024-03-07T08:47:34;45.87;;;24.53;;
6947;SDS011;3513;47.664;9.162;2024-03-07T08:50:00;39.00;;;20.33;;
6947;SDS011;3513;47.664;9.162;2024-03-07T08:52:26;35.13;;;19.03;;
6947;SDS011;3513;47.664;9.162;2024-03-07T08:54:53;42.03;;;20.53;;
6947;SDS011;3513;47.664;9.162;2024-03-07T08:57:19;42.30;;;21.20;;
6947;SDS011;3513;47.664;9.162;2024-03-07T08:59:46;51.20;;;24.00;;
6947;SDS011;3513;47.664;9.162;2024-03-07T09:02:12;42.23;;;20.00;;
6947;SDS011;3513;47.664;9.162;2024-03-07T09:04:38;49.93;;;26.43;;
6947;SDS011;3513;47.664;9.162;2024-03-07T09:07:04;40.63;;;19.10;;
6947;SDS011;3513;47.664;9.162;2024-03-07T09:09:31;40.03;;;20.13;;
6947;SDS011;3513;47.664;9.162;2024-03-07T09:12:00;39.27;;;20.73;;
6947;SDS011;3513;47.664;9.162;2024-03-07T09:14:30;41.23;;;20.17;;
6947;SDS011;3513;47.664;9.162;2024-03-07T09:16:55;42.97;;;19.60;;
6947;SDS011;3513;47.664;9.162;2024-03-07T09:19:21;38.80;;;20.37;;
6947;SDS011;3513;47.664;9.162;2024-03-07T09:21:52;47.00;;;22.10;;
6947;SDS011;3513;47.664;9.162;2024-03-07T09:24:18;34.37;;;18.90;;
6947;SDS011;3513;47.664;9.162;2024-03-07T09:26:51;34.60;;;18.60;;
6947;SDS011;3513;47.664;9.162;2024-03-07T09:29:17;44.73;;;20.20;;
6947;SDS011;3513;47.664;9.162;2024-03-07T09:31:47;33.63;;;17.63;;
6947;SDS011;3513;47.664;9.162;2024-03-07T09:34:17;37.30;;;19.50;;
6947;SDS011;3513;47.664;9.162;2024-03-07T09:36:43;38.17;;;20.33;;
6947;SDS011;3513;47.664;9.162;2024-03-07T09:39:09;38.30;;;18.60;;
6947;SDS011;3513;47.664;9.162;2024-03-07T09:41:37;38.13;;;18.53;;
6947;SDS011;3513;47.664;9.162;2024-03-07T09:44:04;41.40;;;20.23;;
6947;SDS011;3513;47.664;9.162;2024-03-07T09:46:30;37.73;;;19.90;;
6947;SDS011;3513;47.664;9.162;2024-03-07T09:48:56;35.77;;;20.73;;
6947;SDS011;3513;47.664;9.162;2024-03-07T09:51:23;39.87;;;21.53;;
6947;SDS011;3513;47.664;9.162;2024-03-07T09:53:50;35.57;;;19.20;;
6947;SDS011;3513;47.664;9.162;2024-03-07T09:56:21;44.40;;;21.90;;
6947;SDS011;3513;47.664;9.162;2024-03-07T09:58:50;41.90;;;22.37;;
6947;SDS011;3513;47.664;9.162;2024-03-07T10:01:20;48.27;;;24.40;;
6947;SDS011;3513;47.664;9.162;2024-03-07T10:03:46;36.43;;;18.93;;
6947;SDS011;3513;47.664;9.162;2024-03-07T10:06:13;48.60;;;24.17;;
6947;SDS011;3513;47.664;9.162;2024-03-07T10:08:40;45.60;;;22.00;;
6947;SDS011;3513;47.664;9.162;2024-03-07T10:11:07;43.10;;;20.70;;
6947;SDS011;3513;47.664;9.162;2024-03-07T10:13:35;43.50;;;20.57;;
6947;SDS011;3513;47.664;9.162;2024-03-07T10:16:01;45.33;;;22.80;;
6947;SDS011;3513;47.664;9.162;2024-03-07T10:18:29;38.17;;;20.20;;
6947;SDS011;3513;47.664;9.162;2024-03-07T10:20:57;41.10;;;21.10;;
6947;SDS011;3513;47.664;9.162;2024-03-07T10:23:23;45.13;;;21.13;;
6947;SDS011;3513;47.664;9.162;2024-03-07T10:25:49;42.40;;;22.37;;
6947;SDS011;3513;47.664;9.162;2024-03-07T10:28:19;39.40;;;20.43;;
6947;SDS011;3513;47.664;9.162;2024-03-07T10:30:46;43.37;;;19.10;;
6947;SDS011;3513;47.664;9.162;2024-03-07T10:33:12;46.80;;;21.03;;
6947;SDS011;3513;47.664;9.162;2024-03-07T10:35:38;40.80;;;21.57;;
6947;SDS011;3513;47.664;9.162;2024-03-07T10:38:04;49.40;;;24.27;;
6947;SDS011;3513;47.664;9.162;2024-03-07T10:40:36;47.80;;;22.53;;
6947;SDS011;3513;47.664;9.162;2024-03-07T10:43:06;40.83;;;21.63;;
6947;SDS011;3513;47.664;9.162;2024-03-07T10:45:37;44.93;;;21.27;;
6947;SDS011;3513;47.664;9.162;2024-03-07T10:48:12;45.13;;;24.20;;
6947;SDS011;3513;47.664;9.162;2024-03-07T10:59:11;42.30;;;22.90;;
6947;SDS011;3513;47.664;9.162;2024-03-07T11:01:45;44.90;;;20.87;;
6947;SDS011;3513;47.664;9.162;2024-03-07T11:04:19;42.40;;;20.77;;
6947;SDS011;3513;47.664;9.162;2024-03-07T11:06:47;43.20;;;23.03;;
6947;SDS011;3513;47.664;9.162;2024-03-07T11:09:14;44.60;;;22.33;;
6947;SDS011;3513;47.664;9.162;2024-03-07T11:11:48;48.83;;;22.50;;
6947;SDS011;3513;47.664;9.162;2024-03-07T11:14:14;47.23;;;21.73;;
6947;SDS011;3513;47.664;9.162;2024-03-07T11:16:41;42.10;;;20.80;;
6947;SDS011;3513;47.664;9.162;2024-03-07T11:19:18;46.43;;;22.37;;
6947;SDS011;3513;47.664;9.162;2024-03-07T11:21:47;39.70;;;20.10;;
6947;SDS011;3513;47.664;9.162;2024-03-07T11:24:22;47.63;;;22.70;;
6947;SDS011;3513;47.664;9.162;2024-03-07T11:26:57;43.80;;;20.93;;
6947;SDS011;3513;47.664;9.162;2024-03-07T11:29:43;37.47;;;18.67;;
6947;SDS011;3513;47.664;9.162;2024-03-07T11:32:12;52.53;;;20.87;;
6947;SDS011;3513;47.664;9.162;2024-03-07T11:34:40;38.00;;;19.80;;
6947;SDS011;3513;47.664;9.162;2024-03-07T11:37:07;35.43;;;18.60;;
6947;SDS011;3513;47.664;9.162;2024-03-07T11:39:42;40.50;;;21.87;;
6947;SDS011;3513;47.664;9.162;2024-03-07T11:42:09;35.97;;;19.70;;
6947;SDS011;3513;47.664;9.162;2024-03-07T11:44:44;40.07;;;20.67;;
6947;SDS011;3513;47.664;9.162;2024-03-07T11:47:11;42.63;;;21.07;;
6947;SDS011;3513;47.664;9.162;2024-03-07T11:49:38;48.83;;;22.37;;
6947;SDS011;3513;47.664;9.162;2024-03-07T11:52:04;37.20;;;19.47;;
6947;SDS011;3513;47.664;9.162;2024-03-07T11:54:36;41.13;;;22.40;;
6947;SDS011;3513;47.664;9.162;2024-03-07T11:57:05;35.53;;;18.67;;
6947;SDS011;3513;47.664;9.162;2024-03-07T11:59:38;39.13;;;20.33;;
6947;SDS011;3513;47.664;9.162;2024-03-07T12:02:05;42.40;;;21.60;;
6947;SDS011;3513;47.664;9.162;2024-03-07T12:04:30;38.97;;;21.67;;
6947;SDS011;3513;47.664;9.162;2024-03-07T12:06:59;37.87;;;21.17;;
6947;SDS011;3513;47.664;9.162;2024-03-07T12:09:25;34.73;;;19.00;;
6947;SDS011;3513;47.664;9.162;2024-03-07T12:11:51;40.20;;;20.33;;
6947;SDS011;3513;47.664;9.162;2024-03-07T12:14:18;40.50;;;21.17;;
6947;SDS011;3513;47.664;9.162;2024-03-07T12:16:44;29.90;;;17.10;;
6947;SDS011;3513;47.664;9.162;2024-03-07T12:19:10;37.37;;;20.20;;
6947;SDS011;3513;47.664;9.162;2024-03-07T12:21:37;37.33;;;18.50;;
6947;SDS011;3513;47.664;9.162;2024-03-07T12:24:13;30.23;;;15.80;;
6947;SDS011;3513;47.664;9.162;2024-03-07T12:26:40;31.90;;;17.47;;
6947;SDS011;3513;47.664;9.162;2024-03-07T12:29:09;31.00;;;16.77;;
6947;SDS011;3513;47.664;9.162;2024-03-07T12:31:37;37.90;;;19.07;;
6947;SDS011;3513;47.664;9.162;2024-03-07T12:34:03;36.53;;;19.33;;
6947;SDS011;3513;47.664;9.162;2024-03-07T12:36:30;43.00;;;21.83;;
6947;SDS011;3513;47.664;9.162;2024-03-07T12:39:00;35.03;;;19.07;;
6947;SDS011;3513;47.664;9.162;2024-03-07T12:41:49;42.13;;;20.50;;
6947;SDS011;3513;47.664;9.162;2024-03-07T12:44:18;41.77;;;20.83;;
6947;SDS011;3513;47.664;9.162;2024-03-07T12:46:47;44.67;;;22.73;;
6947;SDS011;3513;47.664;9.162;2024-03-07T12:49:16;44.37;;;22.27;;
6947;SDS011;3513;47.664;9.162;2024-03-07T12:51:42;41.00;;;23.00;;
6947;SDS011;3513;47.664;9.162;2024-03-07T12:54:08;42.47;;;22.53;;
6947;SDS011;3513;47.664;9.162;2024-03-07T12:56:37;51.23;;;22.33;;
6947;SDS011;3513;47.664;9.162;2024-03-07T12:59:03;38.27;;;20.97;;
6947;SDS011;3513;47.664;9.162;2024-03-07T13:01:29;42.50;;;21.57;;
6947;SDS011;3513;47.664;9.162;2024-03-07T13:03:56;38.70;;;21.97;;
6947;SDS011;3513;47.664;9.162;2024-03-07T13:06:21;40.80;;;23.97;;
6947;SDS011;3513;47.664;9.162;2024-03-07T13:08:54;42.10;;;22.77;;
6947;SDS011;3513;47.664;9.162;2024-03-07T13:11:21;42.20;;;22.47;;
6947;SDS011;3513;47.664;9.162;2024-03-07T13:13:48;50.60;;;24.53;;
6947;SDS011;3513;47.664;9.162;2024-03-07T13:16:14;44.70;;;24.30;;
6947;SDS011;3513;47.664;9.162;2024-03-07T13:18:39;46.50;;;23.70;;
6947;SDS011;3513;47.664;9.162;2024-03-07T13:21:05;49.73;;;24.63;;
6947;SDS011;3513;47.664;9.162;2024-03-07T13:23:36;46.33;;;25.20;;
6947;SDS011;3513;47.664;9.162;2024-03-07T13:26:04;53.30;;;25.37;;
6947;SDS011;3513;47.664;9.162;2024-03-07T13:28:33;42.63;;;24.20;;
6947;SDS011;3513;47.664;9.162;2024-03-07T13:30:59;43.37;;;25.43;;
6947;SDS011;3513;47.664;9.162;2024-03-07T13:33:24;46.17;;;24.20;;
6947;SDS011;3513;47.664;9.162;2024-03-07T13:35:52;49.33;;;24.60;;
6947;SDS011;3513;47.664;9.162;2024-03-07T13:38:18;47.03;;;23.87;;
6947;SDS011;3513;47.664;9.162;2024-03-07T13:40:43;47.80;;;24.77;;
6947;SDS011;3513;47.664;9.162;2024-03-07T13:43:09;45.03;;;25.87;;
6947;SDS011;3513;47.664;9.162;2024-03-07T13:45:35;50.07;;;26.33;;
6947;SDS011;3513;47.664;9.162;2024-03-07T13:48:08;58.30;;;27.00;;
6947;SDS011;3513;47.664;9.162;2024-03-07T13:50:35;45.37;;;24.40;;
6947;SDS011;3513;47.664;9.162;2024-03-07T13:53:03;52.17;;;26.50;;
6947;SDS011;3513;47.664;9.162;2024-03-07T13:59:21;49.80;;;26.70;;
6947;SDS011;3513;47.664;9.162;2024-03-07T14:01:44;50.30;;;24.33;;
6947;SDS011;3513;47.664;9.162;2024-03-07T14:04:34;54.93;;;28.37;;
6947;SDS011;3513;47.664;9.162;2024-03-07T14:07:39;49.20;;;25.70;;
6947;SDS011;3513;47.664;9.162;2024-03-07T14:22:28;56.17;;;25.87;;
6947;SDS011;3513;47.664;9.162;2024-03-07T14:28:13;51.63;;;26.73;;
6947;SDS011;3513;47.664;9.162;2024-03-07T14:30:59;53.83;;;26.97;;
6947;SDS011;3513;47.664;9.162;2024-03-07T14:33:31;51.13;;;25.50;;
6947;SDS011;3513;47.664;9.162;2024-03-07T14:36:13;61.97;;;29.10;;
6947;SDS011;3513;47.664;9.162;2024-03-07T14:38:46;60.73;;;29.80;;
6947;SDS011;3513;47.664;9.162;2024-03-07T14:41:15;55.37;;;28.07;;
6947;SDS011;3513;47.664;9.162;2024-03-07T14:43:43;59.13;;;30.67;;
6947;SDS011;3513;47.664;9.162;2024-03-07T14:46:09;60.93;;;30.40;;
6947;SDS011;3513;47.664;9.162;2024-03-07T14:48:37;60.83;;;28.47;;
6947;SDS011;3513;47.664;9.162;2024-03-07T14:51:03;61.23;;;29.27;;
6947;SDS011;3513;47.664;9.162;2024-03-07T14:53:31;65.30;;;29.83;;
6947;SDS011;3513;47.664;9.162;2024-03-07T14:55:57;59.07;;;28.47;;
6947;SDS011;3513;47.664;9.162;2024-03-07T14:58:24;53.00;;;28.53;;
6947;SDS011;3513;47.664;9.162;2024-03-07T15:00:50;56.70;;;27.93;;
6947;SDS011;3513;47.664;9.162;2024-03-07T15:03:18;67.77;;;30.87;;
6947;SDS011;3513;47.664;9.162;2024-03-07T15:05:44;57.30;;;30.03;;
6947;SDS011;3513;47.664;9.162;2024-03-07T15:08:10;76.43;;;30.17;;
6947;SDS011;3513;47.664;9.162;2024-03-07T15:10:36;63.57;;;30.07;;
6947;SDS011;3513;47.664;9.162;2024-03-07T15:13:05;59.47;;;29.83;;
6947;SDS011;3513;47.664;9.162;2024-03-07T15:15:33;63.93;;;32.00;;
6947;SDS011;3513;47.664;9.162;2024-03-07T15:17:59;63.93;;;31.00;;
6947;SDS011;3513;47.664;9.162;2024-03-07T15:20:25;64.90;;;32.07;;